Atlantic - Newfoundland: Past 24 Hour Conditions

 

Îles de la Madeleine Airport

12:00 PM ADT 20 September 2014
This table is a summary of hourly weather conditions for the past 24 hours.
Date / Time
(ADT)
Wind(knots) Conditions Visibility(km) Pressure(kPa) Air tempC) Relative humidity(%) Dew pointC)
20 September 2014
12:00 SW 24 gust 33 Mostly Cloudy 32 102.2 13 59 5
11:00 WSW 24 gust 35 Partly Cloudy 32 102.3 13 59 5
10:00 SW 21 gust 32 Mostly Cloudy 32 102.3 12 53 3
9:00 SW 23 gust 30 Mostly Cloudy 32 102.4 11 54 2
8:00 SW 16 gust 24 Partly Cloudy 32 102.4 11 52 2
7:00 WSW 13 gust 19 Partly Cloudy 32 102.5 10 53 1
6:00 WSW 12 Partly Cloudy 24 102.5 9 55 1
5:00 WSW 17 N/A N/A 102.5 10 58 2
4:00 W 14 gust 21 N/A N/A 102.5 9 59 2
3:00 W 16 gust 21 N/A N/A 102.5 9 59 2
2:00 W 16 N/A N/A 102.5 9 66 3
1:00 SW 6 N/A N/A 102.5 6 72 2
0:00 WNW 9 N/A N/A 102.5 8 65 2
19 September 2014
23:00 WNW 10 gust 16 Clear 24 102.6 9 63 2
22:00 WNW 13 Clear 24 102.5 9 61 2
21:00 NW 16 gust 21 Mainly Clear 24 102.5 9 61 1
20:00 NW 16 gust 22 Mainly Clear 24 102.4 8 59 1
19:00 NW 20 gust 28 Partly Cloudy 32 102.4 9 60 1
18:00 NW 20 gust 30 Mainly Sunny 32 102.3 9 60 1
17:00 NW 23 gust 33 Mainly Sunny 32 102.2 9 54 0
16:00 NW 25 gust 33 Partly Cloudy 32 102.1 9 54 1
15:00 NW 23 gust 33 Light Rainshower 24 102.0 9 73 4
14:00 NW 18 gust 30 Light Rainshower 32 101.9 8 79 5
13:00 NW 19 gust 34 Light Rainshower 32 101.8 7 81 4
12:00 WNW 12 gust 17 Light Rainshower 19 101.8 6 85 4
 
Map of Atlantic - Newfoundland marine weather areas Southwestern Grand Banks - 44138 Banquereau - 44139 Tail of the Bank - 44140 Nickerson Bank - 44251 Northeast Burgeo Bank - 44255 Blanc-Sablon Airport Cap Whittle Chevery Natashquan Airport Heath Point Miscou Island Grand Étang Ingonish Beach North Mountain St.Paul Island J.A. Douglas McCurdy Sydney Airport Charlottetown Airport East Point North Cape Argentia Bonavista Burgeo Cape Race Corner Brook Daniel's Harbour Englee Ferolle Point La Scie Port aux Basques Rocky Harbour Sagona Island St. Anthony Airport St. John's Int'l Airport St. Lawrence Stephenville Airport Twillingate Winterland Wreckhouse Cartwright Airport Mary's Harbour Grates Cove Pool's Island Marticot Island Long Pond Îles de la Madeleine Airport
Legend: buoyBuoy land stationLand Station